KBTP/BTP METAR and TAF weather

Enter ICAO airport designator
Station Type Date Time Source
KBTP METAR 2020/02/19 10:56 UTC NOAA

KBTP 191056Z AUTO 31005KT 10SM OVC015 M02/M05 A3030 RMK AO2 SLP279 T10221050 FZRANO


Station Type Date Time Source
KBTP Decoded METAR 2020/02/19 10:56 UTC NOAA

Butler, Butler County Airport/K W Scholter Field, PA, United States (KBTP) 40-47N 079-57W
Feb 19, 2020 - 05:56 AM EST / 2020.02.19 1056 UTC
Wind: from the NW (310 degrees) at 6 MPH (5 KT):0
Visibility: 10 mile(s):0
Sky conditions: overcast
Temperature: 28.0 F (-2.2 C)
Windchill: 21 F (-6 C):1
Dew Point: 23.0 F (-5.0 C)
Relative Humidity: 81%
Pressure (altimeter): 30.3 in. Hg (1026 hPa)
ob: KBTP 191056Z AUTO 31005KT 10SM OVC015 M02/M05 A3030 RMK AO2 SLP279 T10221050 FZRANO
cycle: 11

Station Type Date Time Source
KBTP TAF UTC NOAA

Error!

Example: see airport list